sensor_id;sensor_type;location;lat;lon;timestamp;temperature;humidity
71177;DHT22;58877;51.992;4.504;2022-10-16T00:01:46;15.81;70.24
71177;DHT22;58877;51.992;4.504;2022-10-16T00:04:13;15.86;70.03
71177;DHT22;58877;51.992;4.504;2022-10-16T00:06:38;15.91;69.87
71177;DHT22;58877;51.992;4.504;2022-10-16T00:09:05;15.91;70.11
71177;DHT22;58877;51.992;4.504;2022-10-16T00:11:33;15.87;70.20
71177;DHT22;58877;51.992;4.504;2022-10-16T00:14:01;15.84;70.16
71177;DHT22;58877;51.992;4.504;2022-10-16T00:16:28;15.84;69.91
71177;DHT22;58877;51.992;4.504;2022-10-16T00:18:55;15.81;69.73
71177;DHT22;58877;51.992;4.504;2022-10-16T00:21:24;15.87;69.96
71177;DHT22;58877;51.992;4.504;2022-10-16T00:23:52;15.90;69.91
71177;DHT22;58877;51.992;4.504;2022-10-16T00:26:19;15.86;69.94
71177;DHT22;58877;51.992;4.504;2022-10-16T00:28:46;15.91;70.21
71177;DHT22;58877;51.992;4.504;2022-10-16T00:31:12;15.89;70.23
71177;DHT22;58877;51.992;4.504;2022-10-16T00:33:39;15.89;70.24
71177;DHT22;58877;51.992;4.504;2022-10-16T00:36:08;15.84;70.46
71177;DHT22;58877;51.992;4.504;2022-10-16T00:38:35;15.89;70.51
71177;DHT22;58877;51.992;4.504;2022-10-16T00:41:00;15.89;70.52
71177;DHT22;58877;51.992;4.504;2022-10-16T00:45:58;15.94;71.16
71177;DHT22;58877;51.992;4.504;2022-10-16T00:48:24;15.87;71.37
71177;DHT22;58877;51.992;4.504;2022-10-16T00:50:49;15.90;71.80
71177;DHT22;58877;51.992;4.504;2022-10-16T00:53:17;15.86;72.03
71177;DHT22;58877;51.992;4.504;2022-10-16T00:55:43;15.79;72.64
71177;DHT22;58877;51.992;4.504;2022-10-16T00:58:09;15.70;73.20
71177;DHT22;58877;51.992;4.504;2022-10-16T01:00:35;15.70;73.54
71177;DHT22;58877;51.992;4.504;2022-10-16T01:03:02;15.67;73.88
71177;DHT22;58877;51.992;4.504;2022-10-16T01:05:50;15.56;74.33
71177;DHT22;58877;51.992;4.504;2022-10-16T01:08:30;15.56;74.74
71177;DHT22;58877;51.992;4.504;2022-10-16T01:11:12;15.51;75.09
71177;DHT22;58877;51.992;4.504;2022-10-16T01:13:44;15.42;75.71
71177;DHT22;58877;51.992;4.504;2022-10-16T01:16:17;15.35;76.08
71177;DHT22;58877;51.992;4.504;2022-10-16T01:18:55;15.36;76.20
71177;DHT22;58877;51.992;4.504;2022-10-16T01:21:28;15.29;76.64
71177;DHT22;58877;51.992;4.504;2022-10-16T01:27:01;15.29;77.10
71177;DHT22;58877;51.992;4.504;2022-10-16T01:32:40;15.16;77.35
71177;DHT22;58877;51.992;4.504;2022-10-16T01:35:18;15.13;77.38
71177;DHT22;58877;51.992;4.504;2022-10-16T01:38:19;15.05;77.45
71177;DHT22;58877;51.992;4.504;2022-10-16T01:40:51;15.02;77.53
71177;DHT22;58877;51.992;4.504;2022-10-16T01:43:29;15.05;77.39
71177;DHT22;58877;51.992;4.504;2022-10-16T01:45:59;15.09;77.32
71177;DHT22;58877;51.992;4.504;2022-10-16T01:48:25;15.08;77.31
71177;DHT22;58877;51.992;4.504;2022-10-16T01:51:14;15.06;77.39
71177;DHT22;58877;51.992;4.504;2022-10-16T01:53:45;15.02;77.49
71177;DHT22;58877;51.992;4.504;2022-10-16T01:56:16;15.03;77.67
71177;DHT22;58877;51.992;4.504;2022-10-16T01:58:51;15.09;77.52
71177;DHT22;58877;51.992;4.504;2022-10-16T02:01:20;15.06;77.71
71177;DHT22;58877;51.992;4.504;2022-10-16T02:03:51;15.06;77.79
71177;DHT22;58877;51.992;4.504;2022-10-16T02:06:18;15.12;77.76
71177;DHT22;58877;51.992;4.504;2022-10-16T02:08:44;15.15;77.46
71177;DHT22;58877;51.992;4.504;2022-10-16T02:11:10;15.16;77.57
71177;DHT22;58877;51.992;4.504;2022-10-16T02:14:00;15.08;77.71
71177;DHT22;58877;51.992;4.504;2022-10-16T02:16:36;15.08;77.75
71177;DHT22;58877;51.992;4.504;2022-10-16T02:19:02;15.06;77.96
71177;DHT22;58877;51.992;4.504;2022-10-16T02:21:40;15.13;77.71
71177;DHT22;58877;51.992;4.504;2022-10-16T02:24:27;15.12;77.58
71177;DHT22;58877;51.992;4.504;2022-10-16T02:29:27;15.19;77.39
71177;DHT22;58877;51.992;4.504;2022-10-16T02:32:00;15.19;77.29
71177;DHT22;58877;51.992;4.504;2022-10-16T02:34:30;15.16;77.58
71177;DHT22;58877;51.992;4.504;2022-10-16T02:36:58;15.22;77.38
71177;DHT22;58877;51.992;4.504;2022-10-16T02:39:27;15.13;77.45
71177;DHT22;58877;51.992;4.504;2022-10-16T02:41:54;15.13;77.41
71177;DHT22;58877;51.992;4.504;2022-10-16T02:44:19;15.16;77.54
71177;DHT22;58877;51.992;4.504;2022-10-16T02:46:45;15.13;77.62
71177;DHT22;58877;51.992;4.504;2022-10-16T02:49:10;15.18;77.50
71177;DHT22;58877;51.992;4.504;2022-10-16T02:51:36;15.15;77.59
71177;DHT22;58877;51.992;4.504;2022-10-16T02:54:02;15.13;77.50
71177;DHT22;58877;51.992;4.504;2022-10-16T02:56:28;15.03;77.86
71177;DHT22;58877;51.992;4.504;2022-10-16T02:58:54;14.99;78.31
71177;DHT22;58877;51.992;4.504;2022-10-16T03:01:20;14.95;78.49
71177;DHT22;58877;51.992;4.504;2022-10-16T03:03:45;15.05;78.02
71177;DHT22;58877;51.992;4.504;2022-10-16T03:06:11;14.96;78.31
71177;DHT22;58877;51.992;4.504;2022-10-16T03:08:36;14.95;78.47
71177;DHT22;58877;51.992;4.504;2022-10-16T03:11:02;14.91;78.64
71177;DHT22;58877;51.992;4.504;2022-10-16T03:13:27;14.92;78.72
71177;DHT22;58877;51.992;4.504;2022-10-16T03:15:53;14.92;78.72
71177;DHT22;58877;51.992;4.504;2022-10-16T03:18:18;14.89;79.00
71177;DHT22;58877;51.992;4.504;2022-10-16T03:20:44;14.88;79.07
71177;DHT22;58877;51.992;4.504;2022-10-16T03:23:09;14.86;79.30
71177;DHT22;58877;51.992;4.504;2022-10-16T03:25:35;14.91;79.21
71177;DHT22;58877;51.992;4.504;2022-10-16T03:28:01;14.86;79.36
71177;DHT22;58877;51.992;4.504;2022-10-16T03:30:27;14.93;79.31
71177;DHT22;58877;51.992;4.504;2022-10-16T03:32:52;14.98;79.07
71177;DHT22;58877;51.992;4.504;2022-10-16T03:35:23;14.98;78.96
71177;DHT22;58877;51.992;4.504;2022-10-16T03:37:50;15.08;78.55
71177;DHT22;58877;51.992;4.504;2022-10-16T03:40:17;15.05;78.67
71177;DHT22;58877;51.992;4.504;2022-10-16T03:42:43;14.99;78.81
71177;DHT22;58877;51.992;4.504;2022-10-16T03:45:09;15.02;78.84
71177;DHT22;58877;51.992;4.504;2022-10-16T03:47:35;15.03;78.58
71177;DHT22;58877;51.992;4.504;2022-10-16T03:50:01;15.06;78.56
71177;DHT22;58877;51.992;4.504;2022-10-16T03:52:26;15.12;78.40
71177;DHT22;58877;51.992;4.504;2022-10-16T03:54:52;14.99;78.53
71177;DHT22;58877;51.992;4.504;2022-10-16T03:57:17;14.99;78.78
71177;DHT22;58877;51.992;4.504;2022-10-16T03:59:43;14.92;78.97
71177;DHT22;58877;51.992;4.504;2022-10-16T04:02:09;15.02;78.88
71177;DHT22;58877;51.992;4.504;2022-10-16T04:04:34;14.98;79.05
71177;DHT22;58877;51.992;4.504;2022-10-16T04:07:00;14.91;79.24
71177;DHT22;58877;51.992;4.504;2022-10-16T04:09:25;14.91;79.45
71177;DHT22;58877;51.992;4.504;2022-10-16T04:11:51;14.88;79.52
71177;DHT22;58877;51.992;4.504;2022-10-16T04:14:16;14.93;79.54
71177;DHT22;58877;51.992;4.504;2022-10-16T04:16:42;14.93;79.49
71177;DHT22;58877;51.992;4.504;2022-10-16T04:19:09;14.93;79.55
71177;DHT22;58877;51.992;4.504;2022-10-16T04:21:34;14.93;79.73
71177;DHT22;58877;51.992;4.504;2022-10-16T04:24:00;14.91;79.82
71177;DHT22;58877;51.992;4.504;2022-10-16T04:26:25;14.92;79.85
71177;DHT22;58877;51.992;4.504;2022-10-16T04:28:51;14.92;79.98
71177;DHT22;58877;51.992;4.504;2022-10-16T04:31:16;14.92;79.94
71177;DHT22;58877;51.992;4.504;2022-10-16T04:33:43;14.85;80.02
71177;DHT22;58877;51.992;4.504;2022-10-16T04:36:11;14.84;80.35
71177;DHT22;58877;51.992;4.504;2022-10-16T04:38:37;14.85;80.38
71177;DHT22;58877;51.992;4.504;2022-10-16T04:41:07;14.84;80.55
71177;DHT22;58877;51.992;4.504;2022-10-16T04:43:33;14.82;80.66
71177;DHT22;58877;51.992;4.504;2022-10-16T04:45:59;14.81;80.68
71177;DHT22;58877;51.992;4.504;2022-10-16T04:48:25;14.85;80.67
71177;DHT22;58877;51.992;4.504;2022-10-16T04:50:50;14.93;80.55
71177;DHT22;58877;51.992;4.504;2022-10-16T04:53:16;14.88;80.64
71177;DHT22;58877;51.992;4.504;2022-10-16T04:55:42;14.91;80.63
71177;DHT22;58877;51.992;4.504;2022-10-16T04:58:08;14.86;80.61
71177;DHT22;58877;51.992;4.504;2022-10-16T05:00:34;14.95;80.35
71177;DHT22;58877;51.992;4.504;2022-10-16T05:02:59;14.92;80.52
71177;DHT22;58877;51.992;4.504;2022-10-16T05:05:26;14.92;80.54
71177;DHT22;58877;51.992;4.504;2022-10-16T05:07:52;14.99;80.38
71177;DHT22;58877;51.992;4.504;2022-10-16T05:10:18;15.03;80.18
71177;DHT22;58877;51.992;4.504;2022-10-16T05:12:44;15.09;80.03
71177;DHT22;58877;51.992;4.504;2022-10-16T05:15:10;15.09;79.96
71177;DHT22;58877;51.992;4.504;2022-10-16T05:17:36;15.09;79.82
71177;DHT22;58877;51.992;4.504;2022-10-16T05:20:01;15.03;80.18
71177;DHT22;58877;51.992;4.504;2022-10-16T05:22:28;15.08;80.40
71177;DHT22;58877;51.992;4.504;2022-10-16T05:24:54;15.03;80.68
71177;DHT22;58877;51.992;4.504;2022-10-16T05:27:20;15.05;80.61
71177;DHT22;58877;51.992;4.504;2022-10-16T05:29:47;14.96;81.09
71177;DHT22;58877;51.992;4.504;2022-10-16T05:32:14;15.02;81.37
71177;DHT22;58877;51.992;4.504;2022-10-16T05:34:40;14.99;81.43
71177;DHT22;58877;51.992;4.504;2022-10-16T05:37:06;15.02;81.50
71177;DHT22;58877;51.992;4.504;2022-10-16T05:39:31;14.98;81.71
71177;DHT22;58877;51.992;4.504;2022-10-16T05:41:57;14.91;81.93
71177;DHT22;58877;51.992;4.504;2022-10-16T05:44:22;14.92;81.72
71177;DHT22;58877;51.992;4.504;2022-10-16T05:46:47;14.92;81.65
71177;DHT22;58877;51.992;4.504;2022-10-16T05:49:13;14.93;81.76
71177;DHT22;58877;51.992;4.504;2022-10-16T05:51:39;14.91;81.85
71177;DHT22;58877;51.992;4.504;2022-10-16T05:54:04;14.96;81.77
71177;DHT22;58877;51.992;4.504;2022-10-16T05:56:30;14.96;81.31
71177;DHT22;58877;51.992;4.504;2022-10-16T05:58:56;14.98;81.28
71177;DHT22;58877;51.992;4.504;2022-10-16T06:01:21;14.86;81.14
71177;DHT22;58877;51.992;4.504;2022-10-16T06:03:51;14.92;81.15
71177;DHT22;58877;51.992;4.504;2022-10-16T06:06:19;14.93;80.94
71177;DHT22;58877;51.992;4.504;2022-10-16T06:08:46;14.95;80.65
71177;DHT22;58877;51.992;4.504;2022-10-16T06:11:18;15.00;80.63
71177;DHT22;58877;51.992;4.504;2022-10-16T06:13:44;14.98;80.42
71177;DHT22;58877;51.992;4.504;2022-10-16T06:16:12;14.95;80.40
71177;DHT22;58877;51.992;4.504;2022-10-16T06:18:38;14.86;80.03
71177;DHT22;58877;51.992;4.504;2022-10-16T06:21:09;14.98;79.69
71177;DHT22;58877;51.992;4.504;2022-10-16T06:23:35;15.00;79.31
71177;DHT22;58877;51.992;4.504;2022-10-16T06:26:09;14.96;79.09
71177;DHT22;58877;51.992;4.504;2022-10-16T06:28:35;15.02;78.43
71177;DHT22;58877;51.992;4.504;2022-10-16T06:31:01;14.98;78.34
71177;DHT22;58877;51.992;4.504;2022-10-16T06:33:27;14.86;77.35
71177;DHT22;58877;51.992;4.504;2022-10-16T06:35:53;14.92;77.28
71177;DHT22;58877;51.992;4.504;2022-10-16T06:38:18;14.93;77.09
71177;DHT22;58877;51.992;4.504;2022-10-16T06:40:44;14.99;77.18
71177;DHT22;58877;51.992;4.504;2022-10-16T06:43:10;14.96;77.70
71177;DHT22;58877;51.992;4.504;2022-10-16T06:45:35;14.99;78.16
71177;DHT22;58877;51.992;4.504;2022-10-16T06:48:03;14.96;78.82
71177;DHT22;58877;51.992;4.504;2022-10-16T06:50:29;14.99;79.14
71177;DHT22;58877;51.992;4.504;2022-10-16T06:52:55;15.02;79.13
71177;DHT22;58877;51.992;4.504;2022-10-16T06:55:27;15.02;79.14
71177;DHT22;58877;51.992;4.504;2022-10-16T06:57:52;14.96;79.41
71177;DHT22;58877;51.992;4.504;2022-10-16T07:00:18;14.93;79.63
71177;DHT22;58877;51.992;4.504;2022-10-16T07:02:43;14.93;79.67
71177;DHT22;58877;51.992;4.504;2022-10-16T07:05:09;14.88;79.89
71177;DHT22;58877;51.992;4.504;2022-10-16T07:07:34;14.92;79.88
71177;DHT22;58877;51.992;4.504;2022-10-16T07:10:00;14.89;79.96
71177;DHT22;58877;51.992;4.504;2022-10-16T07:12:25;14.91;80.01
71177;DHT22;58877;51.992;4.504;2022-10-16T07:14:51;14.98;79.86
71177;DHT22;58877;51.992;4.504;2022-10-16T07:17:17;15.09;79.74
71177;DHT22;58877;51.992;4.504;2022-10-16T07:19:44;15.06;79.75
71177;DHT22;58877;51.992;4.504;2022-10-16T07:22:09;15.10;79.90
71177;DHT22;58877;51.992;4.504;2022-10-16T07:24:35;15.20;79.46
71177;DHT22;58877;51.992;4.504;2022-10-16T07:27:01;15.30;79.55
71177;DHT22;58877;51.992;4.504;2022-10-16T07:29:26;15.35;79.32
71177;DHT22;58877;51.992;4.504;2022-10-16T07:31:52;15.38;78.99
71177;DHT22;58877;51.992;4.504;2022-10-16T07:34:19;15.49;79.11
71177;DHT22;58877;51.992;4.504;2022-10-16T07:36:50;15.59;79.03
71177;DHT22;58877;51.992;4.504;2022-10-16T07:39:16;15.60;78.83
71177;DHT22;58877;51.992;4.504;2022-10-16T07:41:41;15.61;78.62
71177;DHT22;58877;51.992;4.504;2022-10-16T07:44:07;15.69;78.36
71177;DHT22;58877;51.992;4.504;2022-10-16T07:46:42;15.83;78.26
71177;DHT22;58877;51.992;4.504;2022-10-16T07:49:08;15.81;78.01
71177;DHT22;58877;51.992;4.504;2022-10-16T07:51:34;15.84;77.80
71177;DHT22;58877;51.992;4.504;2022-10-16T07:53:59;15.77;78.10
71177;DHT22;58877;51.992;4.504;2022-10-16T07:56:25;15.77;77.94
71177;DHT22;58877;51.992;4.504;2022-10-16T07:58:51;15.77;77.75
71177;DHT22;58877;51.992;4.504;2022-10-16T08:01:17;15.70;77.98
71177;DHT22;58877;51.992;4.504;2022-10-16T08:03:45;15.70;78.37
71177;DHT22;58877;51.992;4.504;2022-10-16T08:06:11;15.74;77.88
71177;DHT22;58877;51.992;4.504;2022-10-16T08:08:37;15.80;78.07
71177;DHT22;58877;51.992;4.504;2022-10-16T08:11:03;15.89;77.73
71177;DHT22;58877;51.992;4.504;2022-10-16T08:13:30;15.91;77.23
71177;DHT22;58877;51.992;4.504;2022-10-16T08:15:56;16.00;77.16
71177;DHT22;58877;51.992;4.504;2022-10-16T08:18:22;16.03;77.22
71177;DHT22;58877;51.992;4.504;2022-10-16T08:20:47;15.90;77.21
71177;DHT22;58877;51.992;4.504;2022-10-16T08:23:13;15.89;77.93
71177;DHT22;58877;51.992;4.504;2022-10-16T08:25:42;16.05;77.28
71177;DHT22;58877;51.992;4.504;2022-10-16T08:28:10;16.08;76.97
71177;DHT22;58877;51.992;4.504;2022-10-16T08:30:39;16.08;77.21
71177;DHT22;58877;51.992;4.504;2022-10-16T08:33:05;16.10;77.07
71177;DHT22;58877;51.992;4.504;2022-10-16T08:35:31;16.21;77.10
71177;DHT22;58877;51.992;4.504;2022-10-16T08:37:57;16.25;76.25
71177;DHT22;58877;51.992;4.504;2022-10-16T08:40:26;16.25;76.59
71177;DHT22;58877;51.992;4.504;2022-10-16T08:43:30;16.29;76.20
71177;DHT22;58877;51.992;4.504;2022-10-16T08:51:12;16.56;75.92
71177;DHT22;58877;51.992;4.504;2022-10-16T08:54:08;16.55;75.54
71177;DHT22;58877;51.992;4.504;2022-10-16T08:56:32;16.64;75.98
71177;DHT22;58877;51.992;4.504;2022-10-16T08:58:59;16.62;75.27
71177;DHT22;58877;51.992;4.504;2022-10-16T09:01:40;16.54;75.62
71177;DHT22;58877;51.992;4.504;2022-10-16T09:04:35;16.61;76.22
71177;DHT22;58877;51.992;4.504;2022-10-16T09:18:51;16.72;75.62
71177;DHT22;58877;51.992;4.504;2022-10-16T09:21:20;16.82;75.05
71177;DHT22;58877;51.992;4.504;2022-10-16T09:24:15;16.85;74.43
71177;DHT22;58877;51.992;4.504;2022-10-16T09:26:51;16.89;74.85
71177;DHT22;58877;51.992;4.504;2022-10-16T09:29:21;16.95;74.32
71177;DHT22;58877;51.992;4.504;2022-10-16T09:31:54;16.98;74.43
71177;DHT22;58877;51.992;4.504;2022-10-16T09:34:50;16.89;74.40
71177;DHT22;58877;51.992;4.504;2022-10-16T09:37:19;17.00;74.65
71177;DHT22;58877;51.992;4.504;2022-10-16T09:39:48;17.00;73.43
71177;DHT22;58877;51.992;4.504;2022-10-16T09:44:50;16.95;72.37
71177;DHT22;58877;51.992;4.504;2022-10-16T09:47:26;16.90;73.48
71177;DHT22;58877;51.992;4.504;2022-10-16T09:49:55;16.92;72.92
71177;DHT22;58877;51.992;4.504;2022-10-16T09:52:23;16.58;73.12
71177;DHT22;58877;51.992;4.504;2022-10-16T09:55:00;16.73;73.72
71177;DHT22;58877;51.992;4.504;2022-10-16T09:57:27;16.80;73.76
71177;DHT22;58877;51.992;4.504;2022-10-16T09:59:57;16.96;73.67
71177;DHT22;58877;51.992;4.504;2022-10-16T10:02:43;16.78;72.67
71177;DHT22;58877;51.992;4.504;2022-10-16T10:07:44;16.64;72.94
71177;DHT22;58877;51.992;4.504;2022-10-16T10:10:27;16.75;72.00
71177;DHT22;58877;51.992;4.504;2022-10-16T10:12:54;16.68;70.99
71177;DHT22;58877;51.992;4.504;2022-10-16T10:15:21;16.56;70.50
71177;DHT22;58877;51.992;4.504;2022-10-16T10:17:57;16.51;70.67
71177;DHT22;58877;51.992;4.504;2022-10-16T10:20:27;16.61;71.11
71177;DHT22;58877;51.992;4.504;2022-10-16T10:22:54;16.76;70.25
71177;DHT22;58877;51.992;4.504;2022-10-16T10:25:44;16.78;70.45
71177;DHT22;58877;51.992;4.504;2022-10-16T10:31:24;16.59;71.35
71177;DHT22;58877;51.992;4.504;2022-10-16T10:34:25;16.62;71.63
71177;DHT22;58877;51.992;4.504;2022-10-16T10:40:18;16.88;70.07
71177;DHT22;58877;51.992;4.504;2022-10-16T10:43:01;16.78;70.04
71177;DHT22;58877;51.992;4.504;2022-10-16T10:45:42;16.98;68.52
71177;DHT22;58877;51.992;4.504;2022-10-16T10:51:20;17.55;67.25
71177;DHT22;58877;51.992;4.504;2022-10-16T10:56:50;17.34;67.52
71177;DHT22;58877;51.992;4.504;2022-10-16T11:02:25;17.32;65.53
71177;DHT22;58877;51.992;4.504;2022-10-16T11:07:51;17.50;63.42
71177;DHT22;58877;51.992;4.504;2022-10-16T11:10:38;17.49;65.62
71177;DHT22;58877;51.992;4.504;2022-10-16T11:13:23;17.74;63.15
71177;DHT22;58877;51.992;4.504;2022-10-16T11:15:54;17.88;61.99
71177;DHT22;58877;51.992;4.504;2022-10-16T11:18:48;18.05;62.14
71177;DHT22;58877;51.992;4.504;2022-10-16T11:21:14;18.25;60.72
71177;DHT22;58877;51.992;4.504;2022-10-16T11:24:00;18.38;60.77
71177;DHT22;58877;51.992;4.504;2022-10-16T11:26:33;18.38;60.01
71177;DHT22;58877;51.992;4.504;2022-10-16T11:29:01;18.56;58.97
71177;DHT22;58877;51.992;4.504;2022-10-16T11:31:46;18.35;59.82
71177;DHT22;58877;51.992;4.504;2022-10-16T11:34:25;18.37;60.62
71177;DHT22;58877;51.992;4.504;2022-10-16T11:39:30;18.79;59.36
71177;DHT22;58877;51.992;4.504;2022-10-16T11:42:09;19.07;58.07
71177;DHT22;58877;51.992;4.504;2022-10-16T11:47:34;18.93;58.03
71177;DHT22;58877;51.992;4.504;2022-10-16T11:52:56;19.17;58.13
71177;DHT22;58877;51.992;4.504;2022-10-16T11:55:40;18.85;58.35
71177;DHT22;58877;51.992;4.504;2022-10-16T11:58:33;18.52;57.56
71177;DHT22;58877;51.992;4.504;2022-10-16T12:08:51;18.34;56.62
71177;DHT22;58877;51.992;4.504;2022-10-16T12:16:30;18.48;57.26
71177;DHT22;58877;51.992;4.504;2022-10-16T12:19:14;18.32;56.28
71177;DHT22;58877;51.992;4.504;2022-10-16T12:21:41;18.25;55.13
71177;DHT22;58877;51.992;4.504;2022-10-16T12:24:22;18.12;55.98
71177;DHT22;58877;51.992;4.504;2022-10-16T12:26:53;18.01;55.93
71177;DHT22;58877;51.992;4.504;2022-10-16T12:29:34;18.15;57.35
71177;DHT22;58877;51.992;4.504;2022-10-16T12:32:04;17.98;56.36
71177;DHT22;58877;51.992;4.504;2022-10-16T12:34:43;18.27;56.98
71177;DHT22;58877;51.992;4.504;2022-10-16T12:37:35;18.31;56.44
71177;DHT22;58877;51.992;4.504;2022-10-16T12:40:28;18.15;57.10
71177;DHT22;58877;51.992;4.504;2022-10-16T12:42:54;18.31;57.68
71177;DHT22;58877;51.992;4.504;2022-10-16T12:45:30;18.21;58.37
71177;DHT22;58877;51.992;4.504;2022-10-16T12:47:58;18.60;58.06
71177;DHT22;58877;51.992;4.504;2022-10-16T12:52:49;19.03;53.81
71177;DHT22;58877;51.992;4.504;2022-10-16T12:55:20;19.24;53.67
71177;DHT22;58877;51.992;4.504;2022-10-16T12:58:06;19.27;53.11
71177;DHT22;58877;51.992;4.504;2022-10-16T13:06:19;19.82;53.38
71177;DHT22;58877;51.992;4.504;2022-10-16T13:19:58;18.90;55.20
71177;DHT22;58877;51.992;4.504;2022-10-16T13:22:35;18.96;54.72
71177;DHT22;58877;51.992;4.504;2022-10-16T13:28:05;18.82;52.99
71177;DHT22;58877;51.992;4.504;2022-10-16T13:30:41;18.88;53.74
71177;DHT22;58877;51.992;4.504;2022-10-16T13:36:00;18.52;54.62
71177;DHT22;58877;51.992;4.504;2022-10-16T13:38:29;18.68;56.52
71177;DHT22;58877;51.992;4.504;2022-10-16T13:40:59;18.70;55.48
71177;DHT22;58877;51.992;4.504;2022-10-16T13:43:41;18.96;56.31
71177;DHT22;58877;51.992;4.504;2022-10-16T13:46:13;19.02;55.80
71177;DHT22;58877;51.992;4.504;2022-10-16T13:48:39;19.30;56.38
71177;DHT22;58877;51.992;4.504;2022-10-16T13:51:14;19.43;55.87
71177;DHT22;58877;51.992;4.504;2022-10-16T13:53:41;19.46;55.39
71177;DHT22;58877;51.992;4.504;2022-10-16T13:56:14;19.43;56.19
71177;DHT22;58877;51.992;4.504;2022-10-16T13:58:41;19.54;57.28
71177;DHT22;58877;51.992;4.504;2022-10-16T14:01:29;19.63;55.92
71177;DHT22;58877;51.992;4.504;2022-10-16T14:04:08;19.81;56.53
71177;DHT22;58877;51.992;4.504;2022-10-16T14:06:36;19.88;57.23
71177;DHT22;58877;51.992;4.504;2022-10-16T14:09:22;19.84;57.59
71177;DHT22;58877;51.992;4.504;2022-10-16T14:11:54;19.95;57.29
71177;DHT22;58877;51.992;4.504;2022-10-16T14:14:21;19.98;58.35
71177;DHT22;58877;51.992;4.504;2022-10-16T14:16:47;19.84;58.38
71177;DHT22;58877;51.992;4.504;2022-10-16T14:19:25;19.75;58.23
71177;DHT22;58877;51.992;4.504;2022-10-16T14:21:52;19.75;59.01
71177;DHT22;58877;51.992;4.504;2022-10-16T14:26:57;19.82;58.19
71177;DHT22;58877;51.992;4.504;2022-10-16T14:29:24;19.82;57.72
71177;DHT22;58877;51.992;4.504;2022-10-16T14:32:05;19.82;57.70
71177;DHT22;58877;51.992;4.504;2022-10-16T14:34:34;19.87;58.16
71177;DHT22;58877;51.992;4.504;2022-10-16T14:37:29;19.87;59.37
71177;DHT22;58877;51.992;4.504;2022-10-16T14:39:56;19.97;58.18
71177;DHT22;58877;51.992;4.504;2022-10-16T14:42:24;19.98;56.86
71177;DHT22;58877;51.992;4.504;2022-10-16T14:44:52;19.91;56.97
71177;DHT22;58877;51.992;4.504;2022-10-16T14:47:21;19.82;57.05
71177;DHT22;58877;51.992;4.504;2022-10-16T14:49:51;19.77;56.03
71177;DHT22;58877;51.992;4.504;2022-10-16T14:52:17;19.78;56.52
71177;DHT22;58877;51.992;4.504;2022-10-16T14:54:43;19.81;56.36
71177;DHT22;58877;51.992;4.504;2022-10-16T14:57:19;19.79;57.88
71177;DHT22;58877;51.992;4.504;2022-10-16T14:59:47;19.91;55.86
71177;DHT22;58877;51.992;4.504;2022-10-16T15:02:19;19.79;56.88
71177;DHT22;58877;51.992;4.504;2022-10-16T15:04:45;19.68;57.69
71177;DHT22;58877;51.992;4.504;2022-10-16T15:07:11;19.51;57.88
71177;DHT22;58877;51.992;4.504;2022-10-16T15:09:36;19.40;57.95
71177;DHT22;58877;51.992;4.504;2022-10-16T15:12:02;19.41;58.77
71177;DHT22;58877;51.992;4.504;2022-10-16T15:14:28;19.37;59.50
71177;DHT22;58877;51.992;4.504;2022-10-16T15:16:53;19.30;59.93
71177;DHT22;58877;51.992;4.504;2022-10-16T15:19:19;19.34;60.42
71177;DHT22;58877;51.992;4.504;2022-10-16T15:21:45;19.27;60.58
71177;DHT22;58877;51.992;4.504;2022-10-16T15:24:12;19.22;61.27
71177;DHT22;58877;51.992;4.504;2022-10-16T15:26:39;19.14;62.00
71177;DHT22;58877;51.992;4.504;2022-10-16T15:29:04;19.13;61.78
71177;DHT22;58877;51.992;4.504;2022-10-16T15:31:31;19.09;61.69
71177;DHT22;58877;51.992;4.504;2022-10-16T15:33:56;19.02;62.73
71177;DHT22;58877;51.992;4.504;2022-10-16T15:36:33;18.93;64.42
71177;DHT22;58877;51.992;4.504;2022-10-16T15:39:20;18.89;63.43
71177;DHT22;58877;51.992;4.504;2022-10-16T15:41:47;18.80;62.64
71177;DHT22;58877;51.992;4.504;2022-10-16T15:44:19;18.73;63.47
71177;DHT22;58877;51.992;4.504;2022-10-16T15:46:46;18.70;63.83
71177;DHT22;58877;51.992;4.504;2022-10-16T15:49:12;18.69;63.73
71177;DHT22;58877;51.992;4.504;2022-10-16T15:51:40;18.66;64.25
71177;DHT22;58877;51.992;4.504;2022-10-16T15:54:05;18.62;65.11
71177;DHT22;58877;51.992;4.504;2022-10-16T15:56:31;18.58;64.96
71177;DHT22;58877;51.992;4.504;2022-10-16T15:58:59;18.58;64.68
71177;DHT22;58877;51.992;4.504;2022-10-16T16:01:25;18.49;64.90
71177;DHT22;58877;51.992;4.504;2022-10-16T16:03:54;18.47;65.66
71177;DHT22;58877;51.992;4.504;2022-10-16T16:06:21;18.37;66.35
71177;DHT22;58877;51.992;4.504;2022-10-16T16:08:49;18.28;66.38
71177;DHT22;58877;51.992;4.504;2022-10-16T16:11:16;18.25;67.03
71177;DHT22;58877;51.992;4.504;2022-10-16T16:13:43;18.18;67.25
71177;DHT22;58877;51.992;4.504;2022-10-16T16:16:11;18.18;66.75
71177;DHT22;58877;51.992;4.504;2022-10-16T16:18:37;18.14;66.69
71177;DHT22;58877;51.992;4.504;2022-10-16T16:21:04;18.11;66.61
71177;DHT22;58877;51.992;4.504;2022-10-16T16:23:30;18.05;66.71
71177;DHT22;58877;51.992;4.504;2022-10-16T16:26:07;18.01;67.51
71177;DHT22;58877;51.992;4.504;2022-10-16T16:28:33;17.95;67.95
71177;DHT22;58877;51.992;4.504;2022-10-16T16:30:58;17.91;68.36
71177;DHT22;58877;51.992;4.504;2022-10-16T16:33:24;17.80;68.70
71177;DHT22;58877;51.992;4.504;2022-10-16T16:35:49;17.73;68.88
71177;DHT22;58877;51.992;4.504;2022-10-16T16:38:15;17.70;69.29
71177;DHT22;58877;51.992;4.504;2022-10-16T16:40:40;17.67;69.49
71177;DHT22;58877;51.992;4.504;2022-10-16T16:43:06;17.64;69.55
71177;DHT22;58877;51.992;4.504;2022-10-16T16:45:35;17.60;70.02
71177;DHT22;58877;51.992;4.504;2022-10-16T16:48:00;17.54;70.41
71177;DHT22;58877;51.992;4.504;2022-10-16T16:50:26;17.51;70.81
71177;DHT22;58877;51.992;4.504;2022-10-16T16:52:51;17.44;71.19
71177;DHT22;58877;51.992;4.504;2022-10-16T16:55:17;17.43;71.42
71177;DHT22;58877;51.992;4.504;2022-10-16T16:57:42;17.42;71.33
71177;DHT22;58877;51.992;4.504;2022-10-16T17:00:08;17.39;71.32
71177;DHT22;58877;51.992;4.504;2022-10-16T17:02:34;17.39;71.33
71177;DHT22;58877;51.992;4.504;2022-10-16T17:04:59;17.43;71.02
71177;DHT22;58877;51.992;4.504;2022-10-16T17:07:25;17.43;70.79
71177;DHT22;58877;51.992;4.504;2022-10-16T17:09:52;17.40;70.97
71177;DHT22;58877;51.992;4.504;2022-10-16T17:12:17;17.37;71.07
71177;DHT22;58877;51.992;4.504;2022-10-16T17:14:43;17.34;71.49
71177;DHT22;58877;51.992;4.504;2022-10-16T17:17:08;17.36;71.19
71177;DHT22;58877;51.992;4.504;2022-10-16T17:19:34;17.42;70.72
71177;DHT22;58877;51.992;4.504;2022-10-16T17:22:00;17.33;71.29
71177;DHT22;58877;51.992;4.504;2022-10-16T17:24:26;17.29;71.55
71177;DHT22;58877;51.992;4.504;2022-10-16T17:26:51;17.27;71.83